Time;durP1;ratioP1;P1;durP2;ratioP2;P2;SDS_P1;SDS_P2;PMS_P1;PMS_P2;Temp;Humidity;BMP_temperature;BMP_pressure;BME280_temperature;BME280_humidity;BME280_pressure;Samples;Min_cycle;Max_cycle;Signal;HPM_P1;HPM_P2
2021/04/23 00:00:42;;;;;;;9.88;8.32;;;;;;;10.44;64.53;99584.88;5046362;28;20045;-61
2021/04/23 00:03:41;;;;;;;15.27;9.13;;;;;;;10.78;64.49;99638.50;5046498;28;20033;-60
2021/04/23 00:06:20;;;;;;;13.55;7.90;;;;;;;10.37;64.11;99578.13;5046212;28;20044;-60
2021/04/23 00:08:49;;;;;;;13.13;8.63;;;;;;;10.38;63.54;99586.78;5046386;28;20222;-60
2021/04/23 00:11:18;;;;;;;14.65;9.68;;;;;;;10.64;64.63;99643.16;5046266;28;20123;-60
2021/04/23 00:13:44;;;;;;;11.40;8.55;;;;;;;10.57;64.36;99637.25;5038286;28;20032;-60
2021/04/23 00:16:11;;;;;;;9.50;8.27;;;;;;;10.60;64.15;99631.16;5046064;28;20033;-60
2021/04/23 00:18:38;;;;;;;10.18;8.68;;;;;;;10.65;64.40;99631.91;5046040;28;20026;-60
2021/04/23 00:21:05;;;;;;;11.63;8.48;;;;;;;10.64;64.53;99630.19;5046185;28;20096;-59
2021/04/23 00:23:32;;;;;;;13.13;8.70;;;;;;;10.56;64.26;99626.91;5045992;28;20035;-60
2021/04/23 00:26:06;;;;;;;12.27;8.90;;;;;;;10.51;63.89;99622.69;5045942;28;20072;-59
2021/04/23 00:28:35;;;;;;;15.23;8.75;;;;;;;10.41;64.50;99613.44;5045819;28;20195;-60
2021/04/23 00:31:06;;;;;;;13.55;8.07;;;;;;;10.32;65.42;99629.16;5047795;28;20221;-60
2021/04/23 00:33:34;;;;;;;11.38;8.52;;;;;;;10.35;64.68;99636.88;5045966;28;20148;-60
2021/04/23 00:36:03;;;;;;;11.13;8.93;;;;;;;10.34;64.93;99625.66;5045690;28;20030;-60
2021/04/23 00:38:29;;;;;;;11.85;8.65;;;;;;;10.44;64.57;99615.94;5045586;28;20033;-60
2021/04/23 00:41:00;;;;;;;13.05;8.60;;;;;;;10.43;64.76;99618.56;5045784;28;20030;-60
2021/04/23 00:43:31;;;;;;;14.15;10.00;;;;;;;10.34;65.01;99617.88;5045661;28;20310;-60
2021/04/23 00:46:08;;;;;;;12.18;9.65;;;;;;;10.25;65.95;99619.81;5045509;28;20036;-60
2021/04/23 00:48:43;;;;;;;13.43;9.73;;;;;;;10.00;64.93;99560.78;5045600;28;20033;-60
2021/04/23 00:51:14;;;;;;;12.07;9.65;;;;;;;10.02;64.69;99557.28;5045773;28;20322;-62
2021/04/23 00:53:44;;;;;;;14.35;10.60;;;;;;;10.36;64.82;99612.66;5045742;28;20060;-61
2021/04/23 00:56:12;;;;;;;17.30;12.90;;;;;;;10.01;65.56;99567.69;5045343;28;20040;-61
2021/04/23 00:58:38;;;;;;;21.17;15.50;;;;;;;10.25;65.05;99620.66;5045392;28;20038;-61
2021/04/23 01:01:07;;;;;;;19.08;15.50;;;;;;;9.98;65.45;99580.69;5045286;28;20036;-61
2021/04/23 01:03:39;;;;;;;21.17;16.17;;;;;;;10.23;66.27;99630.16;5045411;28;20033;-61
2021/04/23 01:06:27;;;;;;;19.42;15.45;;;;;;;10.24;65.57;99625.88;5045010;28;20242;-61
2021/04/23 01:08:56;;;;;;;21.02;16.63;;;;;;;10.29;65.89;99629.19;5038526;28;20032;-61
2021/04/23 01:11:24;;;;;;;22.63;16.17;;;;;;;10.28;66.00;99628.34;5045104;28;20274;-60
2021/04/23 01:13:51;;;;;;;17.60;15.68;;;;;;;10.26;66.24;99626.66;5044346;28;20026;-60
2021/04/23 01:16:19;;;;;;;18.30;14.25;;;;;;;10.31;65.64;99619.66;5045076;28;20026;-61
2021/04/23 01:18:47;;;;;;;16.38;13.77;;;;;;;10.00;65.77;99566.84;5045083;28;20035;-61
2021/04/23 01:21:16;;;;;;;18.02;15.18;;;;;;;9.91;66.33;99574.78;5044976;28;20074;-61
2021/04/23 01:23:44;;;;;;;17.75;12.93;;;;;;;10.30;65.99;99628.31;5044826;28;20092;-61
2021/04/23 01:26:13;;;;;;;19.35;13.80;;;;;;;10.32;65.19;99637.75;5044647;28;20025;-61
2021/04/23 01:28:41;;;;;;;18.65;13.90;;;;;;;10.35;65.35;99634.28;5044804;28;20330;-61
2021/04/23 01:31:09;;;;;;;19.08;13.30;;;;;;;10.25;66.00;99628.41;5046721;28;20033;-62
2021/04/23 01:33:37;;;;;;;14.90;13.30;;;;;;;10.28;65.53;99628.34;5044505;28;20033;-62
2021/04/23 01:36:05;;;;;;;21.08;14.20;;;;;;;9.91;65.85;99571.34;5044556;28;20104;-62
2021/04/23 01:38:32;;;;;;;14.98;12.90;;;;;;;10.16;67.10;99624.28;5044624;28;20063;-61
2021/04/23 01:40:58;;;;;;;13.75;12.30;;;;;;;10.15;66.27;99608.78;5044527;28;20037;-61
2021/04/23 01:43:23;;;;;;;15.38;13.73;;;;;;;10.22;66.70;99630.19;5044767;28;20029;-60
2021/04/23 01:45:49;;;;;;;15.35;12.45;;;;;;;10.25;66.57;99623.25;5044530;28;20025;-60
2021/04/23 01:48:16;;;;;;;13.18;11.48;;;;;;;10.31;65.68;99617.09;5044517;28;20037;-61
2021/04/23 01:50:43;;;;;;;18.30;12.70;;;;;;;10.21;67.08;99618.16;5044328;28;20337;-61
2021/04/23 01:53:09;;;;;;;14.63;11.48;;;;;;;10.19;66.86;99621.63;5044338;28;20029;-61
2021/04/23 01:55:35;;;;;;;16.02;12.77;;;;;;;10.06;67.04;99611.56;5043865;28;20064;-61
2021/04/23 01:58:03;;;;;;;11.35;10.13;;;;;;;9.74;67.31;99566.50;5044130;28;20279;-61
2021/04/23 02:00:42;;;;;;;13.93;10.85;;;;;;;10.06;67.33;99616.72;5044220;28;20036;-61
2021/04/23 02:03:10;;;;;;;13.82;11.30;;;;;;;10.10;67.10;99624.41;5043027;28;20025;-62
2021/04/23 02:05:37;;;;;;;14.30;10.70;;;;;;;9.91;68.41;99617.91;5044068;28;20028;-62
2021/04/23 02:08:05;;;;;;;11.88;10.57;;;;;;;10.05;67.80;99615.03;5042865;28;20041;-62
2021/04/23 02:10:36;;;;;;;12.23;10.40;;;;;;;9.66;68.60;99564.06;5043970;28;20036;-61
2021/04/23 02:13:03;;;;;;;12.40;10.63;;;;;;;10.11;67.95;99614.91;5044143;28;20051;-59
2021/04/23 02:15:29;;;;;;;12.38;10.05;;;;;;;10.08;67.89;99621.00;5043334;28;20036;-60
2021/04/23 02:17:58;;;;;;;13.23;11.40;;;;;;;9.96;68.50;99600.53;5043925;28;20092;-60
2021/04/23 02:20:28;;;;;;;12.45;10.52;;;;;;;9.61;68.68;99560.72;5043791;28;20037;-61
2021/04/23 02:22:55;;;;;;;11.63;10.35;;;;;;;9.98;67.98;99624.66;5043801;28;20026;-61
2021/04/23 02:25:21;;;;;;;14.95;11.07;;;;;;;9.88;68.37;99607.63;5043912;28;20032;-61
2021/04/23 02:27:49;;;;;;;13.57;10.85;;;;;;;10.00;68.86;99617.72;5043718;28;20029;-62
2021/04/23 02:30:22;;;;;;;13.63;10.50;;;;;;;10.09;68.59;99611.50;5045574;28;20021;-61
2021/04/23 02:32:48;;;;;;;13.18;10.20;;;;;;;9.86;67.89;99581.75;5043601;28;20029;-62
2021/04/23 02:35:15;;;;;;;12.35;10.18;;;;;;;10.22;67.93;99614.66;5043431;28;20332;-62
2021/04/23 02:37:41;;;;;;;12.55;9.90;;;;;;;10.12;68.10;99607.13;5043478;28;20044;-61
2021/04/23 02:40:10;;;;;;;12.50;10.20;;;;;;;10.07;68.18;99613.28;5043603;28;20033;-61
2021/04/23 02:42:36;;;;;;;14.32;9.65;;;;;;;10.10;67.94;99608.03;5043515;28;20035;-61
2021/04/23 02:45:05;;;;;;;12.75;10.32;;;;;;;9.85;68.18;99557.66;5043508;28;20080;-61
2021/04/23 02:47:52;;;;;;;12.40;11.10;;;;;;;10.16;68.62;99619.13;5043523;28;20041;-61
2021/04/23 02:50:41;;;;;;;11.30;10.10;;;;;;;10.22;67.32;99607.78;5043357;28;20049;-62
2021/04/23 02:53:27;;;;;;;13.38;10.23;;;;;;;10.33;67.89;99618.75;5043168;28;20222;-62
2021/04/23 02:56:16;;;;;;;10.57;9.35;;;;;;;10.14;67.78;99581.22;5043123;28;20241;-60
2021/04/23 02:58:41;;;;;;;15.38;11.43;;;;;;;10.29;67.86;99621.41;5043305;28;20098;-60
2021/04/23 03:01:14;;;;;;;14.25;10.50;;;;;;;10.07;67.00;99575.31;5043308;28;20086;-61
2021/04/23 03:03:49;;;;;;;15.85;11.90;;;;;;;10.38;67.59;99621.28;5036178;28;20030;-62
2021/04/23 03:06:15;;;;;;;11.93;10.32;;;;;;;10.36;67.89;99623.03;5042907;28;20072;-61
2021/04/23 03:08:41;;;;;;;12.77;10.77;;;;;;;10.55;67.28;99620.06;5043541;28;20080;-62
2021/04/23 03:11:17;;;;;;;14.25;10.38;;;;;;;10.37;66.56;99578.13;5043137;28;20105;-61
2021/04/23 03:13:47;;;;;;;15.55;11.32;;;;;;;10.60;66.66;99621.63;5042955;28;20037;-61
2021/04/23 03:16:13;;;;;;;13.07;10.48;;;;;;;10.86;66.38;99630.56;5041955;28;20357;-61
2021/04/23 03:18:59;;;;;;;13.77;10.63;;;;;;;11.16;65.25;99636.75;5037042;28;20092;-60
2021/04/23 03:21:45;;;;;;;15.15;10.27;;;;;;;11.56;63.75;99633.13;5043030;28;20094;-61
2021/04/23 03:24:30;;;;;;;14.57;12.18;;;;;;;11.73;63.28;99624.06;5043126;28;20041;-61
2021/04/23 03:27:16;;;;;;;12.73;9.80;;;;;;;12.04;62.87;99625.81;5042806;28;20087;-61
2021/04/23 03:29:43;;;;;;;13.15;11.15;;;;;;;12.12;61.89;99636.00;5048334;28;20310;-62
2021/04/23 03:32:09;;;;;;;12.27;10.98;;;;;;;12.32;62.16;99631.06;5046999;28;20037;-62
2021/04/23 03:34:35;;;;;;;16.13;12.07;;;;;;;12.36;62.24;99637.88;5046867;28;20040;-62
2021/04/23 03:37:03;;;;;;;12.52;10.20;;;;;;;11.86;61.42;99590.84;5045655;28;20029;-62
2021/04/23 03:39:29;;;;;;;13.25;10.07;;;;;;;12.22;61.91;99637.41;5046697;28;20385;-62
2021/04/23 03:41:54;;;;;;;11.60;10.35;;;;;;;12.16;61.50;99635.00;5046610;28;20022;-60
2021/04/23 03:44:20;;;;;;;12.00;9.95;;;;;;;12.26;61.76;99637.28;5046594;28;20033;-59
2021/04/23 03:46:46;;;;;;;12.20;9.70;;;;;;;12.57;61.06;99632.94;5046622;28;20029;-59
2021/04/23 03:49:12;;;;;;;12.70;10.30;;;;;;;12.87;59.19;99636.31;5046549;28;20087;-59
2021/04/23 03:51:38;;;;;;;11.43;9.23;;;;;;;13.06;59.45;99640.94;5046415;28;20356;-59
2021/04/23 03:54:04;;;;;;;11.82;9.10;;;;;;;12.80;59.29;99639.16;5045330;28;20106;-59
2021/04/23 03:56:31;;;;;;;11.73;9.60;;;;;;;12.75;59.33;99636.69;5046265;28;20037;-61
2021/04/23 03:58:57;;;;;;;12.10;9.45;;;;;;;12.51;60.31;99621.00;5046366;28;20045;-58
2021/04/23 04:01:25;;;;;;;10.48;9.38;;;;;;;12.40;60.22;99581.50;5046324;28;20214;-59
2021/04/23 04:03:52;;;;;;;11.25;9.32;;;;;;;12.40;60.72;99631.69;5046416;28;20029;-59
2021/04/23 04:06:18;;;;;;;11.23;9.10;;;;;;;12.36;60.83;99630.06;5045033;28;20232;-59
2021/04/23 04:08:44;;;;;;;10.20;8.57;;;;;;;12.16;61.69;99628.06;5038051;28;20025;-58
2021/04/23 04:11:10;;;;;;;10.30;8.88;;;;;;;12.08;62.16;99623.09;5046073;28;20072;-59
2021/04/23 04:13:37;;;;;;;9.95;8.95;;;;;;;11.89;61.91;99625.31;5045895;28;20029;-59
2021/04/23 04:16:04;;;;;;;10.10;9.10;;;;;;;11.73;62.29;99626.66;5045934;28;20025;-58
2021/04/23 04:18:37;;;;;;;9.52;8.52;;;;;;;11.56;63.39;99627.09;5046047;28;20033;-59
2021/04/23 04:21:03;;;;;;;10.00;8.82;;;;;;;11.59;63.30;99627.00;5051285;28;20028;-60
2021/04/23 04:23:29;;;;;;;9.48;8.43;;;;;;;11.44;63.89;99625.66;5055380;28;20048;-59
2021/04/23 04:25:58;;;;;;;11.35;8.90;;;;;;;11.39;63.78;99637.91;5055954;28;20070;-60
2021/04/23 04:28:29;;;;;;;10.00;8.93;;;;;;;11.47;63.11;99623.00;5053468;28;20026;-60
2021/04/23 04:30:55;;;;;;;12.50;9.23;;;;;;;11.61;63.24;99622.63;5052392;28;20025;-59
2021/04/23 04:33:21;;;;;;;10.80;9.20;;;;;;;11.55;63.33;99631.41;5051118;28;20063;-59
2021/04/23 04:35:47;;;;;;;10.43;9.32;;;;;;;11.84;63.43;99626.34;5056964;28;20239;-59
2021/04/23 04:38:15;;;;;;;11.55;9.10;;;;;;;11.87;62.77;99624.53;5049519;28;20033;-59
2021/04/23 04:40:45;;;;;;;12.48;9.20;;;;;;;11.52;63.55;99565.81;5057383;28;20096;-59
2021/04/23 04:43:13;;;;;;;14.60;9.35;;;;;;;11.81;63.18;99614.28;5055629;28;20284;-59
2021/04/23 04:45:40;;;;;;;10.73;9.63;;;;;;;11.99;63.16;99630.31;5045148;28;20340;-60
2021/04/23 04:48:09;;;;;;;9.55;8.65;;;;;;;12.15;62.56;99628.94;5044985;28;20021;-60
2021/04/23 04:50:39;;;;;;;11.50;8.85;;;;;;;11.76;62.57;99592.84;5045133;28;20030;-60
2021/04/23 04:53:07;;;;;;;11.57;10.38;;;;;;;11.94;62.55;99588.88;5045002;28;20229;-61
2021/04/23 04:55:36;;;;;;;14.43;9.65;;;;;;;12.16;62.02;99596.91;5045094;28;20037;-57
2021/04/23 04:58:04;;;;;;;11.20;8.75;;;;;;;12.51;61.13;99627.91;5047862;28;20036;-62
2021/04/23 05:00:31;;;;;;;9.85;8.85;;;;;;;12.58;61.02;99630.28;5052519;28;20052;-61
2021/04/23 05:02:57;;;;;;;11.15;8.88;;;;;;;12.58;61.84;99640.69;5054731;28;20025;-60
2021/04/23 05:05:24;;;;;;;12.93;8.85;;;;;;;12.88;59.62;99642.34;5044991;28;20025;-60
2021/04/23 05:07:50;;;;;;;9.25;8.25;;;;;;;12.92;60.39;99634.41;5044687;28;20080;-61
2021/04/23 05:10:16;;;;;;;9.57;8.57;;;;;;;12.94;59.71;99632.63;5050265;28;20191;-61
2021/04/23 05:12:42;;;;;;;11.93;8.13;;;;;;;13.30;59.13;99626.28;5044576;28;20071;-60
2021/04/23 05:15:11;;;;;;;8.75;7.63;;;;;;;13.21;57.77;99584.94;5025178;28;20096;-60
2021/04/23 05:17:38;;;;;;;8.45;7.65;;;;;;;13.70;58.10;99626.69;5042037;28;20037;-60
2021/04/23 05:20:08;;;;;;;11.75;7.88;;;;;;;13.26;58.69;99633.31;5042057;28;20064;-60
2021/04/23 05:22:37;;;;;;;12.15;8.35;;;;;;;13.27;58.17;99624.63;5041795;28;20069;-60
2021/04/23 05:25:05;;;;;;;14.75;7.97;;;;;;;13.55;58.13;99654.94;5041596;28;20037;-60
2021/04/23 05:27:32;;;;;;;17.17;8.50;;;;;;;13.79;57.07;99636.75;5040505;28;20318;-60
2021/04/23 05:29:58;;;;;;;9.73;8.23;;;;;;;13.41;58.16;99649.34;5044710;28;20049;-60
2021/04/23 05:32:24;;;;;;;12.88;7.65;;;;;;;13.67;57.13;99644.97;5043739;28;20388;-60
2021/04/23 05:34:50;;;;;;;9.32;7.60;;;;;;;13.47;57.42;99641.34;5044394;28;20310;-60
2021/04/23 05:37:16;;;;;;;10.15;7.95;;;;;;;13.26;57.24;99633.31;5044302;28;20033;-60
2021/04/23 05:39:43;;;;;;;10.00;7.80;;;;;;;13.20;57.71;99651.72;5044243;28;20025;-60
2021/04/23 05:42:11;;;;;;;10.65;7.82;;;;;;;13.38;58.00;99631.22;5044156;28;20048;-61
2021/04/23 05:44:37;;;;;;;11.25;7.53;;;;;;;13.19;57.91;99630.97;5044233;28;20033;-60
2021/04/23 05:47:04;;;;;;;10.45;7.07;;;;;;;13.28;58.41;99647.13;5044394;28;20040;-60
2021/04/23 05:49:32;;;;;;;10.73;7.57;;;;;;;13.41;57.20;99645.00;5044062;28;20033;-61
2021/04/23 05:51:59;;;;;;;11.38;7.25;;;;;;;13.73;56.91;99636.97;5043176;28;20026;-60
2021/04/23 05:54:24;;;;;;;10.88;8.02;;;;;;;13.80;56.66;99641.06;5044008;28;20060;-60
2021/04/23 05:56:51;;;;;;;8.15;7.00;;;;;;;13.80;56.52;99628.88;5043995;28;20033;-61
2021/04/23 05:59:17;;;;;;;11.13;7.32;;;;;;;13.81;56.48;99640.16;5043666;28;20144;-60
2021/04/23 06:01:44;;;;;;;9.27;7.05;;;;;;;14.15;56.27;99642.41;5052654;28;20029;-60
2021/04/23 06:04:10;;;;;;;9.43;7.53;;;;;;;14.03;56.65;99647.22;5049082;28;20104;-60
2021/04/23 06:06:35;;;;;;;10.02;7.50;;;;;;;13.75;56.59;99650.78;5050775;28;20106;-61
2021/04/23 06:09:03;;;;;;;9.50;6.82;;;;;;;13.84;56.54;99645.25;5046565;28;20140;-59
2021/04/23 06:11:28;;;;;;;12.52;7.85;;;;;;;13.88;56.31;99646.00;5050656;28;20061;-61
2021/04/23 06:13:54;;;;;;;10.48;6.88;;;;;;;13.56;57.61;99656.63;5050218;28;20217;-61
2021/04/23 06:16:21;;;;;;;10.65;7.47;;;;;;;13.09;58.56;99661.63;5052451;28;20028;-60
2021/04/23 06:18:48;;;;;;;8.75;7.55;;;;;;;12.67;62.33;99647.34;5048404;28;20063;-60
2021/04/23 06:21:14;;;;;;;12.60;7.97;;;;;;;12.70;63.09;99652.44;5047508;28;20045;-60
2021/04/23 06:23:40;;;;;;;9.70;8.25;;;;;;;12.58;65.19;99664.06;5048636;28;20037;-60
2021/04/23 06:26:06;;;;;;;14.38;8.73;;;;;;;12.39;66.31;99652.50;5050900;28;20024;-60
2021/04/23 06:28:34;;;;;;;10.32;9.23;;;;;;;12.22;66.97;99643.44;5049271;28;20033;-60
2021/04/23 06:31:01;;;;;;;12.32;9.18;;;;;;;12.21;67.53;99627.91;5053184;28;20314;-60
2021/04/23 06:33:39;;;;;;;19.33;9.30;;;;;;;12.57;66.87;99633.78;5049490;28;20332;-61
2021/04/23 06:36:06;;;;;;;15.23;9.50;;;;;;;12.17;69.80;99616.78;5049798;28;20116;-60
2021/04/23 06:38:32;;;;;;;11.80;8.68;;;;;;;12.20;69.17;99621.88;5043236;28;20199;-60
2021/04/23 06:41:00;;;;;;;9.15;7.78;;;;;;;12.15;67.92;99615.13;5046110;28;20024;-61
2021/04/23 06:43:27;;;;;;;10.00;8.40;;;;;;;12.24;68.99;99614.84;5054626;28;20088;-61
2021/04/23 06:45:53;;;;;;;11.02;8.48;;;;;;;12.05;69.00;99604.16;5050160;28;20013;-60
2021/04/23 06:48:20;;;;;;;10.57;8.15;;;;;;;12.32;69.04;99612.88;5045735;28;20029;-61
2021/04/23 06:50:47;;;;;;;11.23;9.23;;;;;;;12.45;68.80;99591.75;5050953;28;20029;-62
2021/04/23 06:53:14;;;;;;;14.40;9.25;;;;;;;12.39;69.68;99598.81;5049982;28;20017;-61
2021/04/23 06:55:41;;;;;;;10.93;9.27;;;;;;;12.39;70.10;99591.03;5049937;28;20091;-60
2021/04/23 06:58:07;;;;;;;12.43;10.25;;;;;;;12.71;68.77;99588.31;5050932;28;20029;-60
2021/04/23 07:00:36;;;;;;;10.55;8.65;;;;;;;12.31;70.71;99587.78;5049554;28;20039;-61
2021/04/23 07:03:03;;;;;;;12.13;10.38;;;;;;;12.63;68.86;99587.69;5048469;28;20213;-61
2021/04/23 07:05:29;;;;;;;11.23;10.02;;;;;;;12.89;69.18;99582.53;5049457;28;20194;-60
2021/04/23 07:07:55;;;;;;;12.65;10.07;;;;;;;13.14;68.29;99579.13;5051769;28;20033;-60
2021/04/23 07:10:25;;;;;;;13.82;10.07;;;;;;;13.07;68.39;99582.84;5049518;28;20025;-60
2021/04/23 07:12:51;;;;;;;15.70;9.63;;;;;;;13.54;65.39;99584.72;5051169;28;20025;-60
2021/04/23 07:15:20;;;;;;;15.35;9.85;;;;;;;13.46;65.65;99572.81;5049537;28;20029;-62
2021/04/23 07:17:47;;;;;;;14.27;9.77;;;;;;;13.63;63.58;99567.03;5051013;28;20072;-60
2021/04/23 07:20:14;;;;;;;13.00;10.75;;;;;;;13.62;64.08;99564.47;5049231;28;20310;-62
2021/04/23 07:22:40;;;;;;;12.43;10.65;;;;;;;13.58;65.74;99561.16;5049314;28;20028;-61
2021/04/23 07:25:07;;;;;;;12.00;10.57;;;;;;;13.64;63.77;99560.94;5052753;28;20028;-61
2021/04/23 07:27:36;;;;;;;15.68;10.68;;;;;;;13.59;64.49;99557.63;5044117;28;20100;-60
2021/04/23 07:30:14;;;;;;;13.13;10.82;;;;;;;14.49;62.04;99555.13;5044799;28;20029;-61
2021/04/23 07:32:40;;;;;;;13.02;9.80;;;;;;;14.36;61.58;99555.66;5049138;28;20022;-60
2021/04/23 07:35:09;;;;;;;9.75;8.85;;;;;;;14.77;59.45;99545.38;5050614;28;20024;-61
2021/04/23 07:37:36;;;;;;;12.20;9.52;;;;;;;14.25;60.24;99551.75;5054405;28;20048;-61
2021/04/23 07:40:06;;;;;;;11.45;9.50;;;;;;;14.62;58.51;99528.59;5052262;28;20310;-60
2021/04/23 07:42:33;;;;;;;10.93;7.80;;;;;;;15.68;59.30;99529.28;5051964;28;20017;-60
2021/04/23 07:45:00;;;;;;;10.35;8.63;;;;;;;15.92;56.60;99539.56;5053189;28;20026;-59
2021/04/23 07:47:28;;;;;;;12.68;8.65;;;;;;;15.91;55.68;99535.25;5042532;28;20025;-61
2021/04/23 07:49:54;;;;;;;9.93;8.25;;;;;;;15.81;56.74;99534.81;5042444;28;20047;-61
2021/04/23 07:52:20;;;;;;;10.45;8.68;;;;;;;16.09;54.42;99523.13;5048362;28;20045;-60
2021/04/23 07:54:46;;;;;;;10.90;8.73;;;;;;;16.10;53.86;99527.41;5050917;28;20036;-60
2021/04/23 07:57:12;;;;;;;8.23;7.43;;;;;;;16.31;55.03;99536.00;5043694;28;20025;-60
2021/04/23 07:59:38;;;;;;;11.30;8.00;;;;;;;16.18;53.04;99514.00;5042064;28;20033;-60
2021/04/23 08:02:06;;;;;;;8.68;7.47;;;;;;;16.05;54.49;99532.84;5042078;28;20247;-62
2021/04/23 08:04:34;;;;;;;7.20;6.47;;;;;;;15.92;54.35;99523.03;5042164;28;20097;-61
2021/04/23 08:07:00;;;;;;;9.82;7.88;;;;;;;15.21;55.26;99539.22;5042368;28;20041;-61
2021/04/23 08:09:26;;;;;;;10.40;8.10;;;;;;;15.13;56.14;99534.31;5042338;28;20026;-61
2021/04/23 08:11:52;;;;;;;10.50;8.63;;;;;;;15.62;55.22;99523.47;5042464;28;20033;-60
2021/04/23 08:14:18;;;;;;;9.15;8.23;;;;;;;15.51;55.00;99537.03;5043650;28;20026;-61
2021/04/23 08:16:44;;;;;;;10.75;8.00;;;;;;;15.79;53.91;99535.81;5038088;28;20042;-61
2021/04/23 08:19:10;;;;;;;9.38;7.57;;;;;;;15.93;52.97;99524.72;5045989;28;20025;-61
2021/04/23 08:21:36;;;;;;;10.63;7.63;;;;;;;16.10;53.10;99521.34;5045984;28;20341;-61
2021/04/23 08:24:02;;;;;;;12.40;8.00;;;;;;;15.91;53.04;99522.19;5058369;28;20233;-61
2021/04/23 08:26:27;;;;;;;9.30;7.38;;;;;;;16.21;53.11;99529.53;5053104;28;20029;-61
2021/04/23 08:28:53;;;;;;;7.80;7.00;;;;;;;16.36;52.69;99531.41;5055672;28;20017;-60
2021/04/23 08:31:21;;;;;;;7.32;6.72;;;;;;;16.49;52.54;99521.22;5057647;28;20040;-60
2021/04/23 08:33:48;;;;;;;9.90;7.38;;;;;;;16.39;52.43;99519.97;5052493;28;20029;-60
2021/04/23 08:36:14;;;;;;;10.50;7.57;;;;;;;16.15;52.22;99516.75;5055223;28;20021;-60
2021/04/23 08:38:40;;;;;;;11.10;6.75;;;;;;;16.57;51.52;99512.97;5057691;28;20025;-60
2021/04/23 08:41:08;;;;;;;7.13;6.38;;;;;;;15.79;52.02;99500.13;5055743;28;20087;-60
2021/04/23 08:43:35;;;;;;;8.80;6.32;;;;;;;15.98;51.96;99494.03;5057070;28;20025;-60
2021/04/23 08:46:02;;;;;;;7.70;5.75;;;;;;;16.51;50.10;99492.38;5058518;28;20021;-60
2021/04/23 08:48:29;;;;;;;10.60;6.50;;;;;;;16.73;49.26;99484.28;5052190;28;20049;-60
2021/04/23 08:50:56;;;;;;;8.38;6.40;;;;;;;17.09;48.59;99486.00;5055204;28;20025;-60
2021/04/23 08:53:29;;;;;;;6.38;5.68;;;;;;;17.19;47.65;99473.31;5049410;28;20025;-61
2021/04/23 08:55:58;;;;;;;6.32;5.72;;;;;;;16.67;48.38;99480.22;5051273;28;20104;-61
2021/04/23 08:58:24;;;;;;;6.50;5.45;;;;;;;17.01;48.48;99482.94;5057443;28;20032;-61
2021/04/23 09:00:51;;;;;;;6.65;5.53;;;;;;;16.50;49.85;99461.91;5049910;28;20033;-61
2021/04/23 09:03:21;;;;;;;7.53;5.13;;;;;;;16.74;49.24;99467.69;5052639;28;20217;-62
2021/04/23 09:06:16;;;;;;;6.80;5.60;;;;;;;16.68;50.12;99461.00;5051908;28;20326;-62
2021/04/23 09:09:13;;;;;;;10.90;6.15;;;;;;;16.00;51.11;99427.75;5052544;28;20056;-62
2021/04/23 09:11:42;;;;;;;15.63;8.10;;;;;;;15.91;50.77;99414.28;5051890;28;20037;-61
2021/04/23 09:14:20;;;;;;;13.55;7.32;;;;;;;16.50;50.91;99448.84;5052510;28;20024;-60
2021/04/23 09:16:58;;;;;;;11.85;6.18;;;;;;;16.50;49.50;99433.16;5051700;28;20190;-61
2021/04/23 09:19:30;;;;;;;10.75;6.30;;;;;;;16.00;49.79;99432.09;5044822;28;20066;-61
2021/04/23 09:22:03;;;;;;;18.67;6.38;;;;;;;16.22;49.81;99422.31;5044871;28;20026;-61
2021/04/23 09:24:37;;;;;;;8.20;5.68;;;;;;;16.30;50.70;99424.53;5044415;28;20096;-61
2021/04/23 09:27:17;;;;;;;6.63;4.78;;;;;;;16.02;51.62;99435.50;5048850;28;20062;-60
2021/04/23 09:29:51;;;;;;;8.50;5.70;;;;;;;15.93;55.48;99454.22;5051353;28;20033;-60
2021/04/23 09:32:27;;;;;;;12.75;6.75;;;;;;;14.59;64.73;99408.81;5044713;28;20021;-60
2021/04/23 09:35:01;;;;;;;12.57;5.97;;;;;;;15.04;61.21;99423.41;5051843;28;20056;-59
2021/04/23 09:37:31;;;;;;;7.60;6.00;;;;;;;15.05;60.85;99437.28;5050958;28;20027;-60
2021/04/23 09:40:11;;;;;;;7.88;5.90;;;;;;;14.56;58.46;99354.22;5053295;28;20021;-59
2021/04/23 09:43:00;;;;;;;6.97;5.40;;;;;;;14.79;61.72;99353.22;5052005;28;20191;-60
2021/04/23 09:45:32;;;;;;;9.10;6.63;;;;;;;14.99;64.53;99392.31;5049905;28;20021;-60
2021/04/23 09:47:58;;;;;;;7.97;6.53;;;;;;;14.79;64.66;99419.28;5046915;28;20036;-60
2021/04/23 09:50:41;;;;;;;10.05;7.93;;;;;;;14.67;69.70;99425.00;5049950;28;20053;-61
2021/04/23 09:53:07;;;;;;;7.40;6.25;;;;;;;14.05;64.05;99450.06;5050331;28;20070;-59
2021/04/23 09:55:35;;;;;;;10.98;5.50;;;;;;;13.48;66.21;99463.50;5049971;28;20025;-60
2021/04/23 09:58:04;;;;;;;8.82;4.85;;;;;;;12.74;66.41;99485.13;5051716;28;20071;-59
2021/04/23 10:00:35;;;;;;;8.18;4.68;;;;;;;12.65;68.28;99461.22;5049739;28;20028;-60
2021/04/23 10:03:07;;;;;;;8.70;4.47;;;;;;;12.03;70.33;99451.06;5049907;28;20044;-59
2021/04/23 10:05:44;;;;;;;7.70;4.28;;;;;;;12.01;65.90;99423.44;5049573;28;20029;-61
2021/04/23 10:08:10;;;;;;;6.07;4.22;;;;;;;12.17;69.09;99422.06;5050931;28;20088;-61
2021/04/23 10:10:37;;;;;;;8.38;4.93;;;;;;;12.40;68.09;99425.69;5049737;28;20036;-60
2021/04/23 10:13:06;;;;;;;7.32;4.78;;;;;;;12.30;67.87;99359.34;5052041;28;20024;-60
2021/04/23 10:15:40;;;;;;;8.10;5.00;;;;;;;12.73;70.32;99350.06;5049451;28;20080;-60
2021/04/23 10:18:10;;;;;;;8.38;5.20;;;;;;;13.30;68.32;99397.41;5050120;28;20021;-60
2021/04/23 10:20:45;;;;;;;6.95;4.97;;;;;;;13.19;68.00;99337.97;5049457;28;20028;-61
2021/04/23 10:23:18;;;;;;;6.03;5.05;;;;;;;13.27;67.46;99335.09;5048060;28;20032;-60
2021/04/23 10:25:45;;;;;;;5.03;4.53;;;;;;;13.65;66.54;99387.41;5048109;28;20025;-61
2021/04/23 10:28:16;;;;;;;9.82;6.30;;;;;;;13.41;69.57;99344.97;5050812;28;20033;-61
2021/04/23 10:30:44;;;;;;;6.97;5.40;;;;;;;13.71;70.93;99399.34;5051258;28;20336;-61
2021/04/23 10:33:11;;;;;;;8.55;5.75;;;;;;;13.79;69.58;99402.50;5048220;28;20306;-60
2021/04/23 10:35:40;;;;;;;6.82;5.38;;;;;;;13.71;70.96;99388.94;5043351;28;20326;-61
2021/04/23 10:38:11;;;;;;;9.45;6.05;;;;;;;13.37;67.38;99353.84;5046865;28;20056;-60
2021/04/23 10:40:39;;;;;;;6.38;5.50;;;;;;;13.43;67.97;99364.00;5049516;28;20093;-60
2021/04/23 10:43:14;;;;;;;6.40;4.82;;;;;;;13.72;65.23;99391.47;5042038;28;20641;-61
2021/04/23 10:45:49;;;;;;;6.93;5.50;;;;;;;13.75;68.41;99396.56;5050628;28;20067;-61
2021/04/23 10:48:15;;;;;;;6.88;5.45;;;;;;;13.74;65.69;99415.69;5035769;28;20037;-60
2021/04/23 10:50:42;;;;;;;7.88;4.80;;;;;;;13.72;63.69;99421.84;5046469;28;20051;-61
2021/04/23 10:53:11;;;;;;;7.95;4.55;;;;;;;13.80;64.60;99430.22;5063096;28;20060;-60
2021/04/23 10:55:47;;;;;;;8.25;4.75;;;;;;;13.69;64.34;99412.41;5056912;28;20025;-58
2021/04/23 10:58:29;;;;;;;4.40;4.00;;;;;;;13.80;61.10;99412.00;5053617;28;20037;-59
2021/04/23 11:01:00;;;;;;;3.72;3.03;;;;;;;13.28;59.44;99360.19;5063350;28;20066;-60
2021/04/23 11:03:29;;;;;;;5.82;3.58;;;;;;;13.59;60.50;99393.69;5058048;28;20036;-60
2021/04/23 11:05:59;;;;;;;5.57;3.50;;;;;;;13.15;62.04;99358.94;5042955;28;20095;-60
2021/04/23 11:08:27;;;;;;;4.20;3.47;;;;;;;13.61;61.19;99398.84;5043160;28;20040;-60
2021/04/23 11:11:02;;;;;;;6.88;3.83;;;;;;;13.64;62.12;99436.00;5043179;28;20025;-59
2021/04/23 11:13:32;;;;;;;4.25;3.72;;;;;;;13.34;62.61;99432.78;5041918;28;20092;-59
2021/04/23 11:16:26;;;;;;;4.88;3.30;;;;;;;13.05;60.63;99421.66;5042210;28;20025;-60
2021/04/23 11:18:57;;;;;;;2.85;2.60;;;;;;;13.21;58.83;99462.72;5041002;28;20025;-60
2021/04/23 11:21:34;;;;;;;4.65;2.50;;;;;;;13.46;59.42;99506.94;5041949;28;20260;-61
2021/04/23 11:24:16;;;;;;;3.45;2.03;;;;;;;12.93;60.56;99474.13;5042185;28;20033;-61
2021/04/23 11:26:52;;;;;;;4.55;2.00;;;;;;;13.35;60.15;99498.69;5042291;28;20259;-61
2021/04/23 11:29:21;;;;;;;3.53;2.30;;;;;;;13.40;61.06;99492.41;5030965;28;20072;-61
2021/04/23 11:32:10;;;;;;;2.58;2.20;;;;;;;13.31;61.00;99484.94;5063013;28;20036;-61
2021/04/23 11:34:38;;;;;;;5.53;2.20;;;;;;;13.25;60.03;99472.13;5061962;28;20245;-60
2021/04/23 11:37:42;;;;;;;3.10;1.70;;;;;;;13.17;59.16;99485.41;5063356;28;20037;-61